GOGG

Ziguinchor Airport

Ziguinchor, Senegal
METAR GOGG 170900Z 02006KT CAVOK 23/14 Q1014
Observed Flight Rules
Nov-17 @ 09:00 UTC (26 minutes ago) Visual Flight Rules
Wind Visibility Clouds
20° at 6 knots 10,000+ meters
  • Clear skies
Temperatures Readings
Current 23°C / 73°F
Dewpoint 14°C / 57°F
Humidity 57%
Altimeter 29.94" Hg
Pressure 1014 hPa
Elevation 23
METAR GOGG 170900Z 02006KT CAVOK 23/14 Q1014
Observed Flight Rules
Nov-17 @ 09:00 UTC
(26 minutes ago)
VFR
Wind Visibility
20° at 6 knots 10,000+ meters
Clouds
  • Clear skies
Temperature Dewpoint
23°C / 73°F 14°C / 57°F
Humidity Altimeter Pressure
57% 29.94" Hg 1014 hPa